createdAt,value
2017-12-02T00:00:52.568Z,74.70
2017-12-02T00:03:20.209Z,74.60
2017-12-02T00:05:47.860Z,74.80
2017-12-02T00:08:15.449Z,74.80
2017-12-02T00:10:43.028Z,75.00
2017-12-02T00:13:10.655Z,75.00
2017-12-02T00:15:38.236Z,74.90
2017-12-02T00:18:05.898Z,74.90
2017-12-02T00:20:33.478Z,74.90
2017-12-02T00:25:33.964Z,74.50
2017-12-02T00:28:01.994Z,74.70
2017-12-02T00:33:05.355Z,74.60
2017-12-02T00:35:32.955Z,74.70
2017-12-02T00:38:00.523Z,74.60
2017-12-02T00:40:28.905Z,74.70
2017-12-02T00:42:56.510Z,74.60
2017-12-02T00:45:24.123Z,74.70
2017-12-02T00:47:52.469Z,74.30
2017-12-02T00:50:20.054Z,74.30
2017-12-02T00:52:48.436Z,74.60
2017-12-02T00:55:16.016Z,74.50
2017-12-02T00:57:43.937Z,74.40
2017-12-02T01:00:11.552Z,74.40
2017-12-02T01:02:39.182Z,74.50
2017-12-02T01:05:07.517Z,74.40
2017-12-02T01:07:35.108Z,74.40
2017-12-02T01:10:03.533Z,74.20
2017-12-02T01:12:31.132Z,74.20
2017-12-02T01:14:58.767Z,74.10
2017-12-02T01:17:26.329Z,74.00
2017-12-02T01:19:54.505Z,74.00
2017-12-02T01:22:22.307Z,74.00
2017-12-02T01:24:49.909Z,74.00
2017-12-02T01:27:17.533Z,74.10
2017-12-02T01:29:45.124Z,74.10
2017-12-02T01:32:12.709Z,74.10
2017-12-02T01:34:40.313Z,74.00
2017-12-02T01:37:07.913Z,74.00
2017-12-02T01:39:35.526Z,74.10
2017-12-02T01:42:03.917Z,74.10
2017-12-02T01:44:31.843Z,74.00
2017-12-02T01:46:59.913Z,74.00
2017-12-02T01:49:27.486Z,73.60
2017-12-02T01:51:55.706Z,73.70
2017-12-02T01:54:23.421Z,73.80
2017-12-02T01:56:51.051Z,74.00
2017-12-02T01:59:18.621Z,74.00
2017-12-02T02:01:46.747Z,74.00
2017-12-02T02:04:15.369Z,74.10
2017-12-02T02:06:42.965Z,74.00
2017-12-02T02:09:10.577Z,74.00
2017-12-02T02:11:38.143Z,74.00
2017-12-02T02:14:06.644Z,74.00
2017-12-02T02:16:34.240Z,74.00
2017-12-02T02:19:03.042Z,73.90
2017-12-02T02:21:31.406Z,73.90
2017-12-02T02:23:59.012Z,73.90
2017-12-02T02:26:27.314Z,73.90
2017-12-02T02:28:54.913Z,74.60
2017-12-02T02:31:23.287Z,74.10
2017-12-02T02:33:50.868Z,74.50
2017-12-02T02:36:19.266Z,73.80
2017-12-02T02:38:47.002Z,73.80
2017-12-02T02:41:15.839Z,74.40
2017-12-02T02:43:43.441Z,74.40
2017-12-02T02:46:11.777Z,73.90
2017-12-02T02:48:39.386Z,73.90
2017-12-02T02:51:06.993Z,74.30
2017-12-02T02:53:34.651Z,74.50
2017-12-02T02:56:02.230Z,74.80
2017-12-02T02:58:30.295Z,74.80
2017-12-02T03:00:57.897Z,75.10
2017-12-02T03:03:25.498Z,75.20
2017-12-02T03:05:53.118Z,75.30
2017-12-02T03:08:21.477Z,75.50
2017-12-02T03:10:49.206Z,75.30
2017-12-02T03:13:16.776Z,75.50
2017-12-02T03:15:44.338Z,75.60
2017-12-02T03:18:11.941Z,75.60
2017-12-02T03:20:39.501Z,75.60
2017-12-02T03:23:07.899Z,75.40
2017-12-02T03:25:35.462Z,75.40
2017-12-02T03:28:03.110Z,75.20
2017-12-02T03:30:30.677Z,75.50
2017-12-02T03:32:58.238Z,75.60
2017-12-02T03:35:25.843Z,75.70
2017-12-02T03:37:53.450Z,75.60
2017-12-02T03:40:21.066Z,75.60
2017-12-02T03:42:48.636Z,75.70
2017-12-02T03:45:16.697Z,75.70
2017-12-02T03:47:44.281Z,75.50
2017-12-02T03:50:12.444Z,75.50
2017-12-02T03:52:40.074Z,75.60
2017-12-02T03:55:07.689Z,75.70
2017-12-02T03:57:35.354Z,75.60
2017-12-02T04:00:02.942Z,75.50
2017-12-02T04:02:30.937Z,75.70
2017-12-02T04:04:58.846Z,75.60
2017-12-02T04:07:27.181Z,75.30
2017-12-02T04:09:54.785Z,75.30
2017-12-02T04:12:22.478Z,75.20
2017-12-02T04:14:50.189Z,75.10
2017-12-02T04:17:19.257Z,75.00
2017-12-02T04:19:47.433Z,75.00
2017-12-02T04:22:15.005Z,75.30
2017-12-02T04:24:42.582Z,75.70
2017-12-02T04:27:10.179Z,75.70
2017-12-02T04:29:37.753Z,76.10
2017-12-02T04:32:05.362Z,75.80
2017-12-02T04:34:33.949Z,75.60
2017-12-02T04:37:01.577Z,75.80
2017-12-02T04:39:29.179Z,75.90
2017-12-02T04:41:57.515Z,75.80
2017-12-02T04:44:25.277Z,75.80
2017-12-02T04:46:52.840Z,76.10
2017-12-02T04:49:20.448Z,76.00
2017-12-02T04:51:48.780Z,76.00
2017-12-02T04:54:16.382Z,75.90
2017-12-02T04:56:44.725Z,76.80
2017-12-02T04:59:12.342Z,76.20
2017-12-02T05:01:39.916Z,76.10
2017-12-02T05:04:07.667Z,76.00
2017-12-02T05:06:35.273Z,76.00
2017-12-02T05:09:03.602Z,76.00
2017-12-02T05:11:31.198Z,76.00
2017-12-02T05:13:58.760Z,76.00
2017-12-02T05:16:26.362Z,76.20
2017-12-02T05:18:54.705Z,76.30
2017-12-02T05:21:22.273Z,76.20
2017-12-02T05:23:49.873Z,76.20
2017-12-02T05:26:17.497Z,76.20
2017-12-02T05:28:45.113Z,76.00
2017-12-02T05:31:12.676Z,76.10
2017-12-02T05:33:40.333Z,76.10
2017-12-02T05:36:07.922Z,76.40
2017-12-02T05:38:35.885Z,76.30
2017-12-02T05:41:03.759Z,76.20
2017-12-02T05:43:31.336Z,76.20
2017-12-02T05:45:58.956Z,76.30
2017-12-02T05:48:26.522Z,76.30
2017-12-02T05:50:54.136Z,76.20
2017-12-02T05:53:21.698Z,76.10
2017-12-02T05:55:50.078Z,76.10
2017-12-02T05:58:17.657Z,76.10
2017-12-02T06:00:45.228Z,76.90
2017-12-02T06:03:12.838Z,76.70
2017-12-02T06:05:40.406Z,76.80
2017-12-02T06:08:08.783Z,76.70
2017-12-02T06:10:36.359Z,76.60
2017-12-02T06:13:04.374Z,76.80
2017-12-02T06:15:31.954Z,76.80
2017-12-02T06:18:01.171Z,76.90
2017-12-02T06:20:29.532Z,77.10
2017-12-02T06:22:57.315Z,77.00
2017-12-02T06:25:25.692Z,77.30
2017-12-02T06:27:53.493Z,77.10
2017-12-02T06:30:21.252Z,77.40
2017-12-02T06:32:48.807Z,77.70
2017-12-02T06:35:16.441Z,77.70
2017-12-02T06:37:44.835Z,77.70
2017-12-02T06:40:12.401Z,77.60
2017-12-02T06:42:40.070Z,77.50
2017-12-02T06:45:07.631Z,77.10
2017-12-02T06:47:35.937Z,77.30
2017-12-02T06:50:03.523Z,77.50
2017-12-02T06:52:31.099Z,77.70
2017-12-02T06:54:59.465Z,77.50
2017-12-02T06:57:27.127Z,77.40
2017-12-02T06:59:54.728Z,77.80
2017-12-02T07:02:22.285Z,77.80
2017-12-02T07:04:49.837Z,77.60
2017-12-02T07:07:17.429Z,77.50
2017-12-02T07:09:45.141Z,77.30
2017-12-02T07:12:13.529Z,77.40
2017-12-02T07:14:41.183Z,77.40
2017-12-02T07:17:09.317Z,77.00
2017-12-02T07:19:36.904Z,76.70
2017-12-02T07:22:04.481Z,77.00
2017-12-02T07:24:33.068Z,76.80
2017-12-02T07:27:00.620Z,76.70
2017-12-02T07:29:28.995Z,77.10
2017-12-02T07:31:56.561Z,77.10
2017-12-02T07:34:25.197Z,77.80
2017-12-02T07:36:52.833Z,77.70
2017-12-02T07:39:20.472Z,77.80
2017-12-02T07:41:48.070Z,77.90
2017-12-02T07:44:15.648Z,78.00
2017-12-02T07:46:44.478Z,77.60
2017-12-02T07:49:12.069Z,77.60
2017-12-02T07:51:39.691Z,77.70
2017-12-02T07:54:08.016Z,77.40
2017-12-02T07:56:35.614Z,77.40
2017-12-02T07:59:03.973Z,78.20
2017-12-02T08:01:31.614Z,77.80
2017-12-02T08:03:59.190Z,77.90
2017-12-02T08:06:26.761Z,77.90
2017-12-02T08:08:54.393Z,77.70
2017-12-02T08:11:22.137Z,77.30
2017-12-02T08:13:49.737Z,77.10
2017-12-02T08:16:17.459Z,77.40
2017-12-02T08:18:45.074Z,77.40
2017-12-02T08:21:12.695Z,77.50
2017-12-02T08:23:40.305Z,77.40
2017-12-02T08:26:08.680Z,77.30
2017-12-02T08:28:36.225Z,77.10
2017-12-02T08:31:03.815Z,77.20
2017-12-02T08:33:31.650Z,77.10
2017-12-02T08:36:01.272Z,76.80
2017-12-02T08:38:29.599Z,76.80
2017-12-02T08:40:57.157Z,76.80
2017-12-02T08:43:24.762Z,76.50
2017-12-02T08:45:52.332Z,76.50
2017-12-02T08:48:19.945Z,76.50
2017-12-02T08:50:47.505Z,76.50
2017-12-02T08:53:15.080Z,76.30
2017-12-02T08:55:42.716Z,76.40
2017-12-02T08:58:10.277Z,76.30
2017-12-02T09:00:37.897Z,76.20
2017-12-02T09:03:05.494Z,75.90
2017-12-02T09:05:33.069Z,75.90
2017-12-02T09:08:00.666Z,75.70
2017-12-02T09:10:28.255Z,75.50
2017-12-02T09:12:55.892Z,75.40
2017-12-02T09:15:24.241Z,75.10
2017-12-02T09:17:51.864Z,75.10
2017-12-02T09:20:19.432Z,75.10
2017-12-02T09:22:47.025Z,74.70
2017-12-02T09:25:14.813Z,74.60
2017-12-02T09:27:43.146Z,74.70
2017-12-02T09:30:10.749Z,74.70
2017-12-02T09:32:39.086Z,74.70
2017-12-02T09:35:06.850Z,74.70
2017-12-02T09:37:34.432Z,74.60
2017-12-02T09:40:02.169Z,74.70
2017-12-02T09:42:29.799Z,74.70
2017-12-02T09:44:57.389Z,74.80
2017-12-02T09:47:25.279Z,74.80
2017-12-02T09:49:52.844Z,74.80
2017-12-02T09:54:54.986Z,74.30
2017-12-02T09:57:22.717Z,74.10
2017-12-02T09:59:51.051Z,74.10
2017-12-02T10:02:18.648Z,74.10
2017-12-02T10:04:47.003Z,73.60
2017-12-02T10:07:14.562Z,73.60
2017-12-02T10:09:42.169Z,73.40
2017-12-02T10:12:09.728Z,73.30
2017-12-02T10:14:37.338Z,73.60
2017-12-02T10:17:04.934Z,73.00
2017-12-02T10:19:32.648Z,72.60
2017-12-02T10:22:00.221Z,73.00
2017-12-02T10:24:27.780Z,73.20
2017-12-02T10:26:55.376Z,72.80
2017-12-02T10:29:23.139Z,72.70
2017-12-02T10:31:51.605Z,72.20
2017-12-02T10:34:19.990Z,73.00
2017-12-02T10:36:47.607Z,72.50
2017-12-02T10:39:15.150Z,72.20
2017-12-02T10:41:42.716Z,72.20
2017-12-02T10:44:10.323Z,72.10
2017-12-02T10:46:38.649Z,72.40
2017-12-02T10:49:06.260Z,72.40
2017-12-02T10:51:36.863Z,71.80
2017-12-02T10:54:04.473Z,72.10
2017-12-02T10:56:32.796Z,72.20
2017-12-02T10:59:00.362Z,72.20
2017-12-02T11:01:27.973Z,72.60
2017-12-02T11:03:55.533Z,72.70
2017-12-02T11:06:23.342Z,72.20
2017-12-02T11:08:50.928Z,72.20
2017-12-02T11:11:19.313Z,72.30
2017-12-02T11:13:47.696Z,72.30
2017-12-02T11:16:15.527Z,72.30
2017-12-02T11:18:43.144Z,72.30
2017-12-02T11:21:10.760Z,72.00
2017-12-02T11:23:39.985Z,71.60
2017-12-02T11:26:08.326Z,71.20
2017-12-02T11:28:35.955Z,71.20
2017-12-02T11:31:03.531Z,71.20
2017-12-02T11:33:31.148Z,71.20
2017-12-02T11:35:58.782Z,71.20
2017-12-02T11:38:27.127Z,71.10
2017-12-02T11:40:54.763Z,71.10
2017-12-02T11:43:22.324Z,71.10
2017-12-02T11:45:50.051Z,71.10
2017-12-02T11:48:17.622Z,71.10
2017-12-02T11:50:45.960Z,71.10
2017-12-02T11:53:13.585Z,71.10
2017-12-02T11:55:41.166Z,71.10
2017-12-02T11:58:08.785Z,71.10
2017-12-02T12:00:36.376Z,71.30
2017-12-02T12:03:04.013Z,71.10
2017-12-02T12:05:32.378Z,71.10
2017-12-02T12:07:59.967Z,71.10
2017-12-02T12:10:27.600Z,71.10
2017-12-02T12:12:55.957Z,71.10
2017-12-02T12:15:23.600Z,71.10
2017-12-02T12:17:51.201Z,71.10
2017-12-02T12:20:18.996Z,71.30
2017-12-02T12:22:46.562Z,71.60
2017-12-02T12:25:14.141Z,71.00
2017-12-02T12:27:41.820Z,71.00
2017-12-02T12:30:09.475Z,71.00
2017-12-02T12:32:37.077Z,71.70
2017-12-02T12:35:04.666Z,71.40
2017-12-02T12:37:32.280Z,71.00
2017-12-02T12:39:59.830Z,71.20
2017-12-02T12:42:28.935Z,71.60
2017-12-02T12:44:56.545Z,71.60
2017-12-02T12:47:24.269Z,71.70
2017-12-02T12:49:51.911Z,71.60
2017-12-02T12:52:19.476Z,71.70
2017-12-02T12:54:47.110Z,71.70
2017-12-02T12:57:14.689Z,71.80
2017-12-02T12:59:42.265Z,72.20
2017-12-02T13:02:10.704Z,72.00
2017-12-02T13:04:38.285Z,72.00
2017-12-02T13:07:05.923Z,71.90
2017-12-02T13:09:33.515Z,72.00
2017-12-02T13:12:01.089Z,72.10
2017-12-02T13:14:28.828Z,71.70
2017-12-02T13:16:56.420Z,72.60
2017-12-02T13:19:24.070Z,72.30
2017-12-02T13:21:51.673Z,72.40
2017-12-02T13:24:19.250Z,72.60
2017-12-02T13:26:46.902Z,72.50
2017-12-02T13:29:14.501Z,72.50
2017-12-02T13:31:43.629Z,72.80
2017-12-02T13:34:11.227Z,72.80
2017-12-02T13:36:38.840Z,72.90
2017-12-02T13:39:07.193Z,72.70
2017-12-02T13:41:34.785Z,72.70
2017-12-02T13:44:03.160Z,72.80
2017-12-02T13:46:30.763Z,72.80
2017-12-02T13:48:58.561Z,72.90
2017-12-02T13:51:26.168Z,72.70
2017-12-02T13:53:53.906Z,72.70
2017-12-02T13:56:22.260Z,73.00
2017-12-02T13:58:49.886Z,72.90
2017-12-02T14:01:17.520Z,72.60
2017-12-02T14:03:45.097Z,72.70
2017-12-02T14:06:12.716Z,72.80
2017-12-02T14:08:40.459Z,73.00
2017-12-02T14:11:08.097Z,72.90
2017-12-02T14:13:35.688Z,72.90
2017-12-02T14:16:03.252Z,72.90
2017-12-02T14:18:30.870Z,72.90
2017-12-02T14:20:58.586Z,72.50
2017-12-02T14:23:26.984Z,72.70
2017-12-02T14:25:54.676Z,72.70
2017-12-02T14:28:22.319Z,72.90
2017-12-02T14:30:50.120Z,72.80
2017-12-02T14:33:17.706Z,72.70
2017-12-02T14:35:45.429Z,72.60
2017-12-02T14:38:13.006Z,72.90
2017-12-02T14:40:40.614Z,73.20
2017-12-02T14:43:08.203Z,73.20
2017-12-02T14:45:35.837Z,73.40
2017-12-02T14:48:03.446Z,73.20
2017-12-02T14:50:31.018Z,73.30
2017-12-02T14:52:58.648Z,73.30
2017-12-02T14:55:26.237Z,73.10
2017-12-02T14:57:53.875Z,73.50
2017-12-02T15:00:21.512Z,73.40
2017-12-02T15:02:49.124Z,73.40
2017-12-02T15:05:18.210Z,73.20
2017-12-02T15:07:45.796Z,73.10
2017-12-02T15:10:14.190Z,73.20
2017-12-02T15:12:41.759Z,73.10
2017-12-02T15:15:09.368Z,72.80
2017-12-02T15:17:36.960Z,72.60
2017-12-02T15:20:04.784Z,72.40
2017-12-02T15:22:32.602Z,72.40
2017-12-02T15:25:00.244Z,72.70
2017-12-02T15:27:28.617Z,72.80
2017-12-02T15:29:56.258Z,72.80
2017-12-02T15:32:24.467Z,73.10
2017-12-02T15:34:52.915Z,73.00
2017-12-02T15:37:20.552Z,73.10
2017-12-02T15:39:48.137Z,73.50
2017-12-02T15:42:15.729Z,72.80
2017-12-02T15:44:44.118Z,73.60
2017-12-02T15:47:11.706Z,73.50
2017-12-02T15:49:39.314Z,73.60
2017-12-02T15:52:06.888Z,73.80
2017-12-02T15:54:34.548Z,73.30
2017-12-02T15:57:02.158Z,73.10
2017-12-02T15:59:29.792Z,73.10
2017-12-02T16:01:57.385Z,73.10
2017-12-02T16:04:25.011Z,73.20
2017-12-02T16:06:52.801Z,73.20
2017-12-02T16:09:20.438Z,73.30
2017-12-02T16:11:48.085Z,73.40
2017-12-02T16:14:15.816Z,73.70
2017-12-02T16:16:43.429Z,73.90
2017-12-02T16:19:11.018Z,74.00
2017-12-02T16:21:38.626Z,74.10
2017-12-02T16:24:06.246Z,74.40
2017-12-02T16:26:34.304Z,74.50
2017-12-02T16:29:01.893Z,74.50
2017-12-02T16:31:29.479Z,74.60
2017-12-02T16:33:57.111Z,74.50
2017-12-02T16:36:24.706Z,74.50
2017-12-02T16:38:52.328Z,74.00
2017-12-02T16:41:19.912Z,74.30
2017-12-02T16:43:48.820Z,74.60
2017-12-02T16:46:16.424Z,74.50
2017-12-02T16:48:44.003Z,74.60
2017-12-02T16:51:12.528Z,74.60
2017-12-02T16:53:40.107Z,74.60
2017-12-02T16:56:08.189Z,74.60
2017-12-02T16:58:35.786Z,74.70
2017-12-02T17:01:03.947Z,74.70
2017-12-02T17:03:32.392Z,74.70
2017-12-02T17:06:00.035Z,74.70
2017-12-02T17:08:27.670Z,74.70
2017-12-02T17:10:55.280Z,74.70
2017-12-02T17:13:22.918Z,74.60
2017-12-02T17:15:50.515Z,74.60
2017-12-02T17:18:18.164Z,74.60
2017-12-02T17:20:45.763Z,74.60
2017-12-02T17:23:13.477Z,74.70
2017-12-02T17:25:41.102Z,75.00
2017-12-02T17:28:08.715Z,75.00
2017-12-02T17:30:36.350Z,75.10
2017-12-02T17:33:03.969Z,75.20
2017-12-02T17:35:32.850Z,75.00
2017-12-02T17:38:00.416Z,75.00
2017-12-02T17:40:28.787Z,75.20
2017-12-02T17:42:56.428Z,75.20
2017-12-02T17:45:24.147Z,75.10
2017-12-02T17:47:51.765Z,75.20
2017-12-02T17:50:19.345Z,75.20
2017-12-02T17:52:46.989Z,75.50
2017-12-02T17:55:14.575Z,75.50
2017-12-02T17:57:42.930Z,74.80
2017-12-02T18:00:10.735Z,74.70
2017-12-02T18:02:38.619Z,74.70
2017-12-02T18:05:07.005Z,74.70
2017-12-02T18:07:34.598Z,75.10
2017-12-02T18:10:02.582Z,75.20
2017-12-02T18:12:30.948Z,74.70
2017-12-02T18:14:58.542Z,74.70
2017-12-02T18:17:26.157Z,74.90
2017-12-02T18:19:53.910Z,75.20
2017-12-02T18:22:21.526Z,75.30
2017-12-02T18:24:50.545Z,75.20
2017-12-02T18:27:18.172Z,75.20
2017-12-02T18:29:46.033Z,75.10
2017-12-02T18:32:13.614Z,74.70
2017-12-02T18:34:41.250Z,75.10
2017-12-02T18:37:09.656Z,74.90
2017-12-02T18:39:37.499Z,74.80
2017-12-02T18:42:06.242Z,74.90
2017-12-02T18:44:36.591Z,75.00
2017-12-02T18:47:04.928Z,74.90
2017-12-02T18:49:32.553Z,75.10
2017-12-02T18:52:01.155Z,75.30
2017-12-02T18:54:28.784Z,75.70
2017-12-02T18:56:57.119Z,75.80
2017-12-02T18:59:24.768Z,75.60
2017-12-02T19:01:52.357Z,75.40
2017-12-02T19:04:19.997Z,75.60
2017-12-02T19:06:48.926Z,75.60
2017-12-02T19:09:16.989Z,75.90
2017-12-02T19:11:44.565Z,75.80
2017-12-02T19:14:12.151Z,76.10
2017-12-02T19:16:39.777Z,76.10
2017-12-02T19:19:07.353Z,76.00
2017-12-02T19:21:35.775Z,76.10
2017-12-02T19:24:03.348Z,75.90
2017-12-02T19:26:32.385Z,75.90
2017-12-02T19:28:59.969Z,75.50
2017-12-02T19:31:27.536Z,75.40
2017-12-02T19:33:55.165Z,75.20
2017-12-02T19:36:22.970Z,75.30
2017-12-02T19:38:50.592Z,75.80
2017-12-02T19:41:18.178Z,76.00
2017-12-02T19:43:45.953Z,76.00
2017-12-02T19:46:13.581Z,75.90
2017-12-02T19:48:41.182Z,75.90
2017-12-02T19:51:09.724Z,75.60
2017-12-02T19:53:38.213Z,75.90
2017-12-02T19:56:05.810Z,76.10
2017-12-02T19:58:33.410Z,76.10
2017-12-02T20:01:00.998Z,76.10
2017-12-02T20:03:28.643Z,76.10
2017-12-02T20:05:56.241Z,75.90
2017-12-02T20:08:25.823Z,75.80
2017-12-02T20:10:53.512Z,75.80
2017-12-02T20:13:21.555Z,76.10
2017-12-02T20:15:49.202Z,76.00
2017-12-02T20:18:17.559Z,76.10
2017-12-02T20:20:45.195Z,76.00
2017-12-02T20:23:12.799Z,76.10
2017-12-02T20:25:41.169Z,76.20
2017-12-02T20:28:08.807Z,76.20
2017-12-02T20:30:36.405Z,76.20
2017-12-02T20:33:04.793Z,76.00
2017-12-02T20:35:32.422Z,76.00
2017-12-02T20:38:02.152Z,75.90
2017-12-02T20:40:29.750Z,75.50
2017-12-02T20:42:59.612Z,75.60
2017-12-02T20:45:27.228Z,75.60
2017-12-02T20:47:54.825Z,75.60
2017-12-02T20:50:23.450Z,75.60
2017-12-02T20:52:53.852Z,75.80
2017-12-02T20:55:21.558Z,75.80
2017-12-02T20:57:50.053Z,75.40
2017-12-02T21:00:17.640Z,75.40
2017-12-02T21:02:45.246Z,75.40
2017-12-02T21:05:12.827Z,75.40
2017-12-02T21:07:40.461Z,75.50
2017-12-02T21:10:08.282Z,75.60
2017-12-02T21:12:35.918Z,75.30
2017-12-02T21:15:04.644Z,75.10
2017-12-02T21:17:34.832Z,75.20
2017-12-02T21:20:02.468Z,75.40
2017-12-02T21:22:32.821Z,75.40
2017-12-02T21:25:00.414Z,75.50
2017-12-02T21:27:28.737Z,75.40
2017-12-02T21:29:56.358Z,75.50
2017-12-02T21:32:23.991Z,75.50
2017-12-02T21:34:51.622Z,75.60
2017-12-02T21:37:19.501Z,75.70
2017-12-02T21:39:47.126Z,75.60
2017-12-02T21:42:16.045Z,75.80
2017-12-02T21:44:47.031Z,75.70
2017-12-02T21:47:14.643Z,75.80
2017-12-02T21:49:42.212Z,75.80
2017-12-02T21:52:09.906Z,75.80
2017-12-02T21:54:37.497Z,75.80
2017-12-02T21:57:05.209Z,75.60
2017-12-02T21:59:32.802Z,75.50
2017-12-02T22:02:01.085Z,75.60
2017-12-02T22:04:29.449Z,75.80
2017-12-02T22:06:57.025Z,75.70
2017-12-02T22:09:25.414Z,75.40
2017-12-02T22:11:53.022Z,75.40
2017-12-02T22:14:20.609Z,75.20
2017-12-02T22:16:48.231Z,75.40
2017-12-02T22:19:15.813Z,75.50
2017-12-02T22:21:43.473Z,75.30
2017-12-02T22:24:11.100Z,75.10
2017-12-02T22:26:38.724Z,75.40
2017-12-02T22:29:06.634Z,75.30
2017-12-02T22:31:34.874Z,75.30
2017-12-02T22:34:02.533Z,75.40
2017-12-02T22:36:30.122Z,75.40
2017-12-02T22:38:57.726Z,75.40
2017-12-02T22:41:25.363Z,75.40
2017-12-02T22:43:52.934Z,75.20
2017-12-02T22:46:21.722Z,75.50
2017-12-02T22:48:49.996Z,75.50
2017-12-02T22:51:17.623Z,75.40
2017-12-02T22:53:45.243Z,75.50
2017-12-02T22:56:13.020Z,75.20
2017-12-02T22:58:40.961Z,75.10
2017-12-02T23:01:08.552Z,75.20
2017-12-02T23:03:38.229Z,75.00
2017-12-02T23:06:05.838Z,74.90
2017-12-02T23:08:33.462Z,75.10
2017-12-02T23:11:01.785Z,74.80
2017-12-02T23:13:29.431Z,74.70
2017-12-02T23:15:57.677Z,74.60
2017-12-02T23:18:26.088Z,74.60
2017-12-02T23:20:53.781Z,74.60
2017-12-02T23:23:22.113Z,74.50
2017-12-02T23:25:50.553Z,74.20
2017-12-02T23:28:18.161Z,74.20
2017-12-02T23:30:45.797Z,74.90
2017-12-02T23:33:13.434Z,74.60
2017-12-02T23:35:41.039Z,74.40
2017-12-02T23:38:09.439Z,74.40
2017-12-02T23:40:37.265Z,74.40
2017-12-02T23:43:04.889Z,74.60
2017-12-02T23:45:32.485Z,74.70
2017-12-02T23:48:00.144Z,74.70
2017-12-02T23:50:27.726Z,74.70
2017-12-02T23:52:55.325Z,74.90
2017-12-02T23:55:23.012Z,74.60
2017-12-02T23:57:50.815Z,74.70
